sensor_id;sensor_type;location;lat;lon;timestamp;P1;durP1;ratioP1;P2;durP2;ratioP2
70505;SDS011;58032;49.820;6.274;2022-11-13T00:00:36;10.52;;;1.42;;
70505;SDS011;58032;49.820;6.274;2022-11-13T00:03:22;5.38;;;1.65;;
70505;SDS011;58032;49.820;6.274;2022-11-13T00:06:09;3.92;;;1.40;;
70505;SDS011;58032;49.820;6.274;2022-11-13T00:08:55;3.53;;;1.45;;
70505;SDS011;58032;49.820;6.274;2022-11-13T00:11:40;7.37;;;1.63;;
70505;SDS011;58032;49.820;6.274;2022-11-13T00:14:26;4.30;;;1.50;;
70505;SDS011;58032;49.820;6.274;2022-11-13T00:17:11;3.80;;;1.65;;
70505;SDS011;58032;49.820;6.274;2022-11-13T00:19:57;4.18;;;1.50;;
70505;SDS011;58032;49.820;6.274;2022-11-13T00:22:42;6.70;;;2.08;;
70505;SDS011;58032;49.820;6.274;2022-11-13T00:25:28;7.80;;;1.73;;
70505;SDS011;58032;49.820;6.274;2022-11-13T00:28:14;15.18;;;2.20;;
70505;SDS011;58032;49.820;6.274;2022-11-13T00:31:00;12.15;;;1.92;;
70505;SDS011;58032;49.820;6.274;2022-11-13T00:33:47;3.95;;;1.50;;
70505;SDS011;58032;49.820;6.274;2022-11-13T00:36:53;10.25;;;1.67;;
70505;SDS011;58032;49.820;6.274;2022-11-13T00:39:38;20.00;;;2.00;;
70505;SDS011;58032;49.820;6.274;2022-11-13T00:42:24;17.08;;;1.98;;
70505;SDS011;58032;49.820;6.274;2022-11-13T00:45:09;8.50;;;2.08;;
70505;SDS011;58032;49.820;6.274;2022-11-13T00:47:55;7.47;;;1.80;;
70505;SDS011;58032;49.820;6.274;2022-11-13T00:50:40;4.60;;;1.73;;
70505;SDS011;58032;49.820;6.274;2022-11-13T00:53:26;13.07;;;2.13;;
70505;SDS011;58032;49.820;6.274;2022-11-13T00:56:11;13.77;;;2.00;;
70505;SDS011;58032;49.820;6.274;2022-11-13T00:58:56;7.88;;;1.90;;
70505;SDS011;58032;49.820;6.274;2022-11-13T01:01:42;15.40;;;2.05;;
70505;SDS011;58032;49.820;6.274;2022-11-13T01:04:27;31.27;;;2.70;;
70505;SDS011;58032;49.820;6.274;2022-11-13T01:07:13;41.33;;;3.07;;
70505;SDS011;58032;49.820;6.274;2022-11-13T01:09:58;11.85;;;1.80;;
70505;SDS011;58032;49.820;6.274;2022-11-13T01:12:45;23.98;;;2.20;;
70505;SDS011;58032;49.820;6.274;2022-11-13T01:15:30;18.02;;;2.13;;
70505;SDS011;58032;49.820;6.274;2022-11-13T01:18:22;14.38;;;2.22;;
70505;SDS011;58032;49.820;6.274;2022-11-13T01:21:11;7.30;;;2.00;;
70505;SDS011;58032;49.820;6.274;2022-11-13T01:24:00;4.85;;;1.80;;
70505;SDS011;58032;49.820;6.274;2022-11-13T01:26:45;9.60;;;1.73;;
70505;SDS011;58032;49.820;6.274;2022-11-13T01:29:32;5.68;;;1.55;;
70505;SDS011;58032;49.820;6.274;2022-11-13T01:32:17;5.95;;;1.88;;
70505;SDS011;58032;49.820;6.274;2022-11-13T01:35:03;9.23;;;3.47;;
70505;SDS011;58032;49.820;6.274;2022-11-13T01:37:48;8.38;;;1.70;;
70505;SDS011;58032;49.820;6.274;2022-11-13T01:40:34;10.27;;;2.03;;
70505;SDS011;58032;49.820;6.274;2022-11-13T01:43:27;25.55;;;2.10;;
70505;SDS011;58032;49.820;6.274;2022-11-13T01:46:25;12.23;;;1.73;;
70505;SDS011;58032;49.820;6.274;2022-11-13T01:49:16;40.57;;;4.23;;
70505;SDS011;58032;49.820;6.274;2022-11-13T01:52:12;14.80;;;2.00;;
70505;SDS011;58032;49.820;6.274;2022-11-13T01:55:03;44.28;;;4.18;;
70505;SDS011;58032;49.820;6.274;2022-11-13T01:57:53;42.05;;;2.58;;
70505;SDS011;58032;49.820;6.274;2022-11-13T02:00:39;34.97;;;2.85;;
70505;SDS011;58032;49.820;6.274;2022-11-13T02:03:24;54.50;;;3.00;;
70505;SDS011;58032;49.820;6.274;2022-11-13T02:06:09;12.57;;;2.40;;
70505;SDS011;58032;49.820;6.274;2022-11-13T02:08:55;30.40;;;2.70;;
70505;SDS011;58032;49.820;6.274;2022-11-13T02:11:41;33.70;;;3.00;;
70505;SDS011;58032;49.820;6.274;2022-11-13T02:14:27;94.20;;;4.22;;
70505;SDS011;58032;49.820;6.274;2022-11-13T02:17:14;113.13;;;6.13;;
70505;SDS011;58032;49.820;6.274;2022-11-13T02:20:04;79.63;;;4.15;;
70505;SDS011;58032;49.820;6.274;2022-11-13T02:22:53;86.32;;;3.83;;
70505;SDS011;58032;49.820;6.274;2022-11-13T02:25:52;37.72;;;2.65;;
70505;SDS011;58032;49.820;6.274;2022-11-13T02:28:38;143.93;;;5.10;;
70505;SDS011;58032;49.820;6.274;2022-11-13T02:31:23;35.03;;;2.10;;
70505;SDS011;58032;49.820;6.274;2022-11-13T02:34:09;74.95;;;4.93;;
70505;SDS011;58032;49.820;6.274;2022-11-13T02:36:54;17.98;;;1.92;;
70505;SDS011;58032;49.820;6.274;2022-11-13T02:39:40;39.63;;;2.60;;
70505;SDS011;58032;49.820;6.274;2022-11-13T02:42:25;31.55;;;2.65;;
70505;SDS011;58032;49.820;6.274;2022-11-13T02:45:10;24.67;;;2.53;;
70505;SDS011;58032;49.820;6.274;2022-11-13T02:47:58;18.85;;;2.70;;
70505;SDS011;58032;49.820;6.274;2022-11-13T02:50:44;16.20;;;2.38;;
70505;SDS011;58032;49.820;6.274;2022-11-13T02:53:30;18.08;;;2.60;;
70505;SDS011;58032;49.820;6.274;2022-11-13T02:56:16;23.20;;;2.85;;
70505;SDS011;58032;49.820;6.274;2022-11-13T02:59:02;12.37;;;1.77;;
70505;SDS011;58032;49.820;6.274;2022-11-13T03:01:47;18.40;;;2.17;;
70505;SDS011;58032;49.820;6.274;2022-11-13T03:04:33;7.30;;;1.88;;
70505;SDS011;58032;49.820;6.274;2022-11-13T03:07:34;5.68;;;2.53;;
70505;SDS011;58032;49.820;6.274;2022-11-13T03:10:20;8.88;;;1.98;;
70505;SDS011;58032;49.820;6.274;2022-11-13T03:13:05;10.57;;;1.93;;
70505;SDS011;58032;49.820;6.274;2022-11-13T03:15:51;12.93;;;1.95;;
70505;SDS011;58032;49.820;6.274;2022-11-13T03:18:36;12.02;;;2.00;;
70505;SDS011;58032;49.820;6.274;2022-11-13T03:21:21;6.25;;;1.95;;
70505;SDS011;58032;49.820;6.274;2022-11-13T03:24:07;4.32;;;1.85;;
70505;SDS011;58032;49.820;6.274;2022-11-13T03:26:52;4.97;;;1.87;;
70505;SDS011;58032;49.820;6.274;2022-11-13T03:29:37;7.82;;;2.30;;
70505;SDS011;58032;49.820;6.274;2022-11-13T03:32:23;5.55;;;2.20;;
70505;SDS011;58032;49.820;6.274;2022-11-13T03:35:08;8.50;;;3.13;;
70505;SDS011;58032;49.820;6.274;2022-11-13T03:37:54;5.20;;;2.00;;
70505;SDS011;58032;49.820;6.274;2022-11-13T03:40:41;7.77;;;1.80;;
70505;SDS011;58032;49.820;6.274;2022-11-13T03:43:26;5.07;;;1.90;;
70505;SDS011;58032;49.820;6.274;2022-11-13T03:46:12;9.95;;;2.10;;
70505;SDS011;58032;49.820;6.274;2022-11-13T03:48:58;7.00;;;1.88;;
70505;SDS011;58032;49.820;6.274;2022-11-13T03:51:43;6.25;;;1.98;;
70505;SDS011;58032;49.820;6.274;2022-11-13T03:54:29;5.00;;;1.77;;
70505;SDS011;58032;49.820;6.274;2022-11-13T03:57:14;13.88;;;2.30;;
70505;SDS011;58032;49.820;6.274;2022-11-13T04:00:00;7.60;;;2.08;;
70505;SDS011;58032;49.820;6.274;2022-11-13T04:02:45;15.35;;;2.47;;
70505;SDS011;58032;49.820;6.274;2022-11-13T04:05:31;21.33;;;2.75;;
70505;SDS011;58032;49.820;6.274;2022-11-13T04:08:17;9.83;;;2.00;;
70505;SDS011;58032;49.820;6.274;2022-11-13T04:11:09;12.45;;;2.40;;
70505;SDS011;58032;49.820;6.274;2022-11-13T04:13:57;18.30;;;2.17;;
70505;SDS011;58032;49.820;6.274;2022-11-13T04:16:42;7.15;;;1.95;;
70505;SDS011;58032;49.820;6.274;2022-11-13T04:19:27;4.75;;;2.03;;
70505;SDS011;58032;49.820;6.274;2022-11-13T04:22:13;5.47;;;2.00;;
70505;SDS011;58032;49.820;6.274;2022-11-13T04:24:58;5.00;;;1.95;;
70505;SDS011;58032;49.820;6.274;2022-11-13T04:27:43;4.28;;;1.60;;
70505;SDS011;58032;49.820;6.274;2022-11-13T04:30:29;5.15;;;1.90;;
70505;SDS011;58032;49.820;6.274;2022-11-13T04:33:14;4.50;;;1.73;;
70505;SDS011;58032;49.820;6.274;2022-11-13T04:36:00;4.33;;;1.63;;
70505;SDS011;58032;49.820;6.274;2022-11-13T04:38:46;5.38;;;1.77;;
70505;SDS011;58032;49.820;6.274;2022-11-13T04:41:31;4.45;;;1.88;;
70505;SDS011;58032;49.820;6.274;2022-11-13T04:44:38;3.67;;;1.63;;
70505;SDS011;58032;49.820;6.274;2022-11-13T04:47:24;4.75;;;1.77;;
70505;SDS011;58032;49.820;6.274;2022-11-13T04:50:10;5.07;;;1.73;;
70505;SDS011;58032;49.820;6.274;2022-11-13T04:52:55;3.90;;;1.65;;
70505;SDS011;58032;49.820;6.274;2022-11-13T04:55:41;5.07;;;2.05;;
70505;SDS011;58032;49.820;6.274;2022-11-13T04:58:27;3.85;;;1.75;;
70505;SDS011;58032;49.820;6.274;2022-11-13T05:01:12;4.93;;;1.73;;
70505;SDS011;58032;49.820;6.274;2022-11-13T05:03:58;6.13;;;2.47;;
70505;SDS011;58032;49.820;6.274;2022-11-13T05:06:44;5.25;;;2.30;;
70505;SDS011;58032;49.820;6.274;2022-11-13T05:09:29;6.22;;;3.08;;
70505;SDS011;58032;49.820;6.274;2022-11-13T05:12:15;9.45;;;3.90;;
70505;SDS011;58032;49.820;6.274;2022-11-13T05:15:00;5.82;;;2.53;;
70505;SDS011;58032;49.820;6.274;2022-11-13T05:17:47;4.47;;;1.70;;
70505;SDS011;58032;49.820;6.274;2022-11-13T05:20:33;4.25;;;1.73;;
70505;SDS011;58032;49.820;6.274;2022-11-13T05:23:19;5.70;;;2.42;;
70505;SDS011;58032;49.820;6.274;2022-11-13T05:26:05;7.30;;;2.83;;
70505;SDS011;58032;49.820;6.274;2022-11-13T05:28:55;7.15;;;3.08;;
70505;SDS011;58032;49.820;6.274;2022-11-13T05:31:42;7.07;;;3.10;;
70505;SDS011;58032;49.820;6.274;2022-11-13T05:34:28;10.68;;;4.75;;
70505;SDS011;58032;49.820;6.274;2022-11-13T05:37:13;8.18;;;3.80;;
70505;SDS011;58032;49.820;6.274;2022-11-13T05:39:59;6.90;;;3.95;;
70505;SDS011;58032;49.820;6.274;2022-11-13T05:42:44;5.60;;;2.72;;
70505;SDS011;58032;49.820;6.274;2022-11-13T05:45:29;6.07;;;2.60;;
70505;SDS011;58032;49.820;6.274;2022-11-13T05:48:15;5.97;;;2.45;;
70505;SDS011;58032;49.820;6.274;2022-11-13T05:51:04;5.78;;;2.38;;
70505;SDS011;58032;49.820;6.274;2022-11-13T05:53:52;7.20;;;2.78;;
70505;SDS011;58032;49.820;6.274;2022-11-13T05:56:38;6.03;;;2.70;;
70505;SDS011;58032;49.820;6.274;2022-11-13T05:59:24;10.37;;;3.57;;
70505;SDS011;58032;49.820;6.274;2022-11-13T06:02:09;6.32;;;3.13;;
70505;SDS011;58032;49.820;6.274;2022-11-13T06:04:55;7.35;;;3.22;;
70505;SDS011;58032;49.820;6.274;2022-11-13T06:07:40;6.30;;;2.60;;
70505;SDS011;58032;49.820;6.274;2022-11-13T06:10:26;8.40;;;3.80;;
70505;SDS011;58032;49.820;6.274;2022-11-13T06:13:11;12.90;;;3.73;;
70505;SDS011;58032;49.820;6.274;2022-11-13T06:16:03;6.63;;;3.10;;
70505;SDS011;58032;49.820;6.274;2022-11-13T06:18:54;8.43;;;3.47;;
70505;SDS011;58032;49.820;6.274;2022-11-13T06:21:42;7.05;;;3.05;;
70505;SDS011;58032;49.820;6.274;2022-11-13T06:24:27;6.72;;;2.75;;
70505;SDS011;58032;49.820;6.274;2022-11-13T06:27:12;5.60;;;2.80;;
70505;SDS011;58032;49.820;6.274;2022-11-13T06:29:57;8.20;;;2.92;;
70505;SDS011;58032;49.820;6.274;2022-11-13T06:32:43;6.70;;;2.70;;
70505;SDS011;58032;49.820;6.274;2022-11-13T06:35:28;4.85;;;2.30;;
70505;SDS011;58032;49.820;6.274;2022-11-13T06:38:14;6.03;;;2.58;;
70505;SDS011;58032;49.820;6.274;2022-11-13T06:41:00;6.37;;;2.40;;
70505;SDS011;58032;49.820;6.274;2022-11-13T06:43:46;5.43;;;2.28;;
70505;SDS011;58032;49.820;6.274;2022-11-13T06:46:32;5.43;;;2.13;;
70505;SDS011;58032;49.820;6.274;2022-11-13T06:49:17;5.45;;;2.40;;
70505;SDS011;58032;49.820;6.274;2022-11-13T06:52:03;5.40;;;2.20;;
70505;SDS011;58032;49.820;6.274;2022-11-13T06:54:49;6.50;;;2.30;;
70505;SDS011;58032;49.820;6.274;2022-11-13T06:57:34;5.15;;;2.28;;
70505;SDS011;58032;49.820;6.274;2022-11-13T07:00:20;5.15;;;1.85;;
70505;SDS011;58032;49.820;6.274;2022-11-13T07:03:05;4.10;;;1.70;;
70505;SDS011;58032;49.820;6.274;2022-11-13T07:05:51;6.53;;;2.35;;
70505;SDS011;58032;49.820;6.274;2022-11-13T07:08:37;7.10;;;2.80;;
70505;SDS011;58032;49.820;6.274;2022-11-13T07:11:22;7.00;;;3.38;;
70505;SDS011;58032;49.820;6.274;2022-11-13T07:14:09;11.80;;;4.50;;
70505;SDS011;58032;49.820;6.274;2022-11-13T07:16:56;9.48;;;4.07;;
70505;SDS011;58032;49.820;6.274;2022-11-13T07:19:52;10.27;;;4.20;;
70505;SDS011;58032;49.820;6.274;2022-11-13T07:22:38;9.17;;;4.17;;
70505;SDS011;58032;49.820;6.274;2022-11-13T07:25:23;9.40;;;5.07;;
70505;SDS011;58032;49.820;6.274;2022-11-13T07:28:09;7.82;;;3.95;;
70505;SDS011;58032;49.820;6.274;2022-11-13T07:30:56;10.60;;;4.22;;
70505;SDS011;58032;49.820;6.274;2022-11-13T07:33:43;7.97;;;3.35;;
70505;SDS011;58032;49.820;6.274;2022-11-13T07:36:28;6.57;;;2.83;;
70505;SDS011;58032;49.820;6.274;2022-11-13T07:39:14;5.80;;;2.88;;
70505;SDS011;58032;49.820;6.274;2022-11-13T07:41:59;7.13;;;3.38;;
70505;SDS011;58032;49.820;6.274;2022-11-13T07:44:44;6.50;;;3.35;;
70505;SDS011;58032;49.820;6.274;2022-11-13T07:47:37;6.90;;;3.47;;
70505;SDS011;58032;49.820;6.274;2022-11-13T07:50:23;6.57;;;3.27;;
70505;SDS011;58032;49.820;6.274;2022-11-13T07:53:10;6.70;;;3.28;;
70505;SDS011;58032;49.820;6.274;2022-11-13T07:55:55;7.45;;;3.47;;
70505;SDS011;58032;49.820;6.274;2022-11-13T07:58:44;6.43;;;2.90;;
70505;SDS011;58032;49.820;6.274;2022-11-13T08:01:30;6.70;;;3.28;;
70505;SDS011;58032;49.820;6.274;2022-11-13T08:04:15;7.23;;;3.43;;
70505;SDS011;58032;49.820;6.274;2022-11-13T08:07:01;6.78;;;3.03;;
70505;SDS011;58032;49.820;6.274;2022-11-13T08:09:47;7.07;;;3.30;;
70505;SDS011;58032;49.820;6.274;2022-11-13T08:12:32;6.93;;;3.00;;
70505;SDS011;58032;49.820;6.274;2022-11-13T08:15:18;5.72;;;3.08;;
70505;SDS011;58032;49.820;6.274;2022-11-13T08:18:03;7.00;;;2.63;;
70505;SDS011;58032;49.820;6.274;2022-11-13T08:20:50;6.65;;;3.17;;
70505;SDS011;58032;49.820;6.274;2022-11-13T08:23:35;7.10;;;3.50;;
70505;SDS011;58032;49.820;6.274;2022-11-13T08:26:21;6.50;;;3.10;;
70505;SDS011;58032;49.820;6.274;2022-11-13T08:29:07;5.70;;;3.00;;
70505;SDS011;58032;49.820;6.274;2022-11-13T08:31:52;6.10;;;2.63;;
70505;SDS011;58032;49.820;6.274;2022-11-13T08:34:38;6.85;;;2.92;;
70505;SDS011;58032;49.820;6.274;2022-11-13T08:37:23;6.07;;;2.70;;
70505;SDS011;58032;49.820;6.274;2022-11-13T08:40:09;7.22;;;2.50;;
70505;SDS011;58032;49.820;6.274;2022-11-13T08:42:58;6.82;;;3.60;;
70505;SDS011;58032;49.820;6.274;2022-11-13T08:45:47;14.80;;;4.23;;
70505;SDS011;58032;49.820;6.274;2022-11-13T08:48:32;10.75;;;4.85;;
70505;SDS011;58032;49.820;6.274;2022-11-13T08:51:19;9.18;;;2.80;;
70505;SDS011;58032;49.820;6.274;2022-11-13T08:54:05;7.30;;;3.15;;
70505;SDS011;58032;49.820;6.274;2022-11-13T08:56:50;6.72;;;2.88;;
70505;SDS011;58032;49.820;6.274;2022-11-13T08:59:39;5.23;;;2.40;;
70505;SDS011;58032;49.820;6.274;2022-11-13T09:02:25;7.93;;;2.85;;
70505;SDS011;58032;49.820;6.274;2022-11-13T09:05:11;5.35;;;2.40;;
70505;SDS011;58032;49.820;6.274;2022-11-13T09:07:57;5.80;;;2.40;;
70505;SDS011;58032;49.820;6.274;2022-11-13T09:10:44;6.43;;;2.58;;
70505;SDS011;58032;49.820;6.274;2022-11-13T09:13:31;5.13;;;2.50;;
70505;SDS011;58032;49.820;6.274;2022-11-13T09:16:18;4.13;;;1.95;;
70505;SDS011;58032;49.820;6.274;2022-11-13T09:19:04;4.90;;;2.33;;
70505;SDS011;58032;49.820;6.274;2022-11-13T09:21:50;4.93;;;2.45;;
70505;SDS011;58032;49.820;6.274;2022-11-13T09:24:36;4.85;;;2.17;;
70505;SDS011;58032;49.820;6.274;2022-11-13T09:27:22;6.67;;;2.17;;
70505;SDS011;58032;49.820;6.274;2022-11-13T09:30:07;6.07;;;2.70;;
70505;SDS011;58032;49.820;6.274;2022-11-13T09:32:55;8.57;;;2.70;;
70505;SDS011;58032;49.820;6.274;2022-11-13T09:35:42;6.50;;;2.80;;
70505;SDS011;58032;49.820;6.274;2022-11-13T09:38:28;5.53;;;2.63;;
70505;SDS011;58032;49.820;6.274;2022-11-13T09:41:17;4.47;;;2.00;;
70505;SDS011;58032;49.820;6.274;2022-11-13T09:44:12;5.00;;;2.08;;
70505;SDS011;58032;49.820;6.274;2022-11-13T09:49:48;5.05;;;2.60;;
70505;SDS011;58032;49.820;6.274;2022-11-13T09:52:41;6.85;;;2.60;;
70505;SDS011;58032;49.820;6.274;2022-11-13T09:55:31;6.43;;;2.70;;
70505;SDS011;58032;49.820;6.274;2022-11-13T09:58:26;4.85;;;1.90;;
70505;SDS011;58032;49.820;6.274;2022-11-13T10:01:25;5.28;;;2.28;;
70505;SDS011;58032;49.820;6.274;2022-11-13T10:04:19;4.75;;;1.98;;
70505;SDS011;58032;49.820;6.274;2022-11-13T10:07:21;4.50;;;2.00;;
70505;SDS011;58032;49.820;6.274;2022-11-13T10:13:32;4.22;;;2.00;;
70505;SDS011;58032;49.820;6.274;2022-11-13T10:19:28;4.10;;;1.80;;
70505;SDS011;58032;49.820;6.274;2022-11-13T10:22:36;4.80;;;2.03;;
70505;SDS011;58032;49.820;6.274;2022-11-13T10:25:26;3.20;;;1.33;;
70505;SDS011;58032;49.820;6.274;2022-11-13T10:28:16;4.20;;;1.52;;
70505;SDS011;58032;49.820;6.274;2022-11-13T10:31:24;2.97;;;1.20;;
70505;SDS011;58032;49.820;6.274;2022-11-13T10:34:09;5.13;;;1.40;;
70505;SDS011;58032;49.820;6.274;2022-11-13T10:36:59;4.55;;;1.83;;
70505;SDS011;58032;49.820;6.274;2022-11-13T10:39:46;2.47;;;0.93;;
70505;SDS011;58032;49.820;6.274;2022-11-13T10:42:41;2.88;;;1.10;;
70505;SDS011;58032;49.820;6.274;2022-11-13T10:45:26;3.58;;;1.50;;
70505;SDS011;58032;49.820;6.274;2022-11-13T10:48:22;3.85;;;1.52;;
70505;SDS011;58032;49.820;6.274;2022-11-13T10:54:19;2.40;;;0.83;;
70505;SDS011;58032;49.820;6.274;2022-11-13T10:57:23;3.22;;;1.27;;
70505;SDS011;58032;49.820;6.274;2022-11-13T11:03:07;4.95;;;1.33;;
70505;SDS011;58032;49.820;6.274;2022-11-13T11:05:58;3.15;;;1.10;;
70505;SDS011;58032;49.820;6.274;2022-11-13T11:08:46;4.90;;;1.47;;
70505;SDS011;58032;49.820;6.274;2022-11-13T11:11:31;2.75;;;1.05;;
70505;SDS011;58032;49.820;6.274;2022-11-13T11:14:40;4.60;;;1.35;;
70505;SDS011;58032;49.820;6.274;2022-11-13T11:17:38;2.58;;;0.93;;
70505;SDS011;58032;49.820;6.274;2022-11-13T11:23:41;3.40;;;1.20;;
70505;SDS011;58032;49.820;6.274;2022-11-13T11:26:48;3.22;;;1.25;;
70505;SDS011;58032;49.820;6.274;2022-11-13T11:29:45;3.63;;;1.58;;
70505;SDS011;58032;49.820;6.274;2022-11-13T11:36:02;3.17;;;1.00;;
70505;SDS011;58032;49.820;6.274;2022-11-13T11:48:15;4.00;;;1.23;;
70505;SDS011;58032;49.820;6.274;2022-11-13T11:54:21;2.73;;;1.03;;
70505;SDS011;58032;49.820;6.274;2022-11-13T12:00:18;3.67;;;0.85;;
70505;SDS011;58032;49.820;6.274;2022-11-13T12:09:21;2.77;;;0.80;;
70505;SDS011;58032;49.820;6.274;2022-11-13T12:15:08;2.90;;;0.90;;
70505;SDS011;58032;49.820;6.274;2022-11-13T12:30:59;2.63;;;0.82;;
70505;SDS011;58032;49.820;6.274;2022-11-13T12:34:01;2.15;;;0.68;;
70505;SDS011;58032;49.820;6.274;2022-11-13T12:36:49;2.40;;;0.88;;
70505;SDS011;58032;49.820;6.274;2022-11-13T12:39:55;2.30;;;0.60;;
70505;SDS011;58032;49.820;6.274;2022-11-13T12:42:48;3.50;;;0.90;;
70505;SDS011;58032;49.820;6.274;2022-11-13T12:48:24;3.00;;;0.85;;
70505;SDS011;58032;49.820;6.274;2022-11-13T12:51:39;2.33;;;0.70;;
70505;SDS011;58032;49.820;6.274;2022-11-13T12:54:33;2.37;;;0.90;;
70505;SDS011;58032;49.820;6.274;2022-11-13T12:57:21;2.30;;;0.70;;
70505;SDS011;58032;49.820;6.274;2022-11-13T13:00:23;2.70;;;0.80;;
70505;SDS011;58032;49.820;6.274;2022-11-13T13:15:26;3.13;;;0.70;;
70505;SDS011;58032;49.820;6.274;2022-11-13T13:21:03;5.45;;;0.93;;
70505;SDS011;58032;49.820;6.274;2022-11-13T13:23:50;2.63;;;1.00;;
70505;SDS011;58032;49.820;6.274;2022-11-13T13:26:44;4.57;;;0.90;;
70505;SDS011;58032;49.820;6.274;2022-11-13T13:29:31;3.90;;;1.10;;
70505;SDS011;58032;49.820;6.274;2022-11-13T13:35:29;2.95;;;0.93;;
70505;SDS011;58032;49.820;6.274;2022-11-13T13:41:58;2.75;;;1.00;;
70505;SDS011;58032;49.820;6.274;2022-11-13T13:48:09;2.85;;;1.00;;
70505;SDS011;58032;49.820;6.274;2022-11-13T13:50:56;2.30;;;0.73;;
70505;SDS011;58032;49.820;6.274;2022-11-13T13:53:44;3.10;;;0.80;;
70505;SDS011;58032;49.820;6.274;2022-11-13T13:56:32;2.45;;;0.85;;
70505;SDS011;58032;49.820;6.274;2022-11-13T13:59:33;3.13;;;0.90;;
70505;SDS011;58032;49.820;6.274;2022-11-13T14:02:21;3.63;;;1.00;;
70505;SDS011;58032;49.820;6.274;2022-11-13T14:05:16;2.80;;;0.90;;
70505;SDS011;58032;49.820;6.274;2022-11-13T14:08:15;2.40;;;0.70;;
70505;SDS011;58032;49.820;6.274;2022-11-13T14:11:20;3.38;;;0.90;;
70505;SDS011;58032;49.820;6.274;2022-11-13T14:14:17;2.45;;;0.77;;
70505;SDS011;58032;49.820;6.274;2022-11-13T14:17:05;2.63;;;0.90;;
70505;SDS011;58032;49.820;6.274;2022-11-13T14:19:54;2.28;;;0.40;;
70505;SDS011;58032;49.820;6.274;2022-11-13T14:22:47;2.80;;;0.50;;
70505;SDS011;58032;49.820;6.274;2022-11-13T14:25:37;2.63;;;0.70;;
70505;SDS011;58032;49.820;6.274;2022-11-13T14:28:24;2.30;;;0.60;;
70505;SDS011;58032;49.820;6.274;2022-11-13T14:31:12;2.20;;;0.60;;
70505;SDS011;58032;49.820;6.274;2022-11-13T14:34:00;2.13;;;0.43;;
70505;SDS011;58032;49.820;6.274;2022-11-13T14:43:05;2.63;;;0.88;;
70505;SDS011;58032;49.820;6.274;2022-11-13T14:46:02;3.75;;;0.60;;
70505;SDS011;58032;49.820;6.274;2022-11-13T14:48:53;2.88;;;0.80;;
70505;SDS011;58032;49.820;6.274;2022-11-13T14:51:40;3.67;;;0.90;;
70505;SDS011;58032;49.820;6.274;2022-11-13T14:54:27;2.38;;;0.70;;
70505;SDS011;58032;49.820;6.274;2022-11-13T14:57:49;2.20;;;0.68;;
70505;SDS011;58032;49.820;6.274;2022-11-13T15:00:35;2.90;;;0.90;;
70505;SDS011;58032;49.820;6.274;2022-11-13T15:03:22;2.10;;;0.60;;
70505;SDS011;58032;49.820;6.274;2022-11-13T15:06:17;2.57;;;0.60;;
70505;SDS011;58032;49.820;6.274;2022-11-13T15:09:11;2.75;;;0.93;;
70505;SDS011;58032;49.820;6.274;2022-11-13T15:11:59;2.38;;;0.68;;
70505;SDS011;58032;49.820;6.274;2022-11-13T15:14:45;2.78;;;0.80;;
70505;SDS011;58032;49.820;6.274;2022-11-13T15:17:30;2.28;;;0.90;;
70505;SDS011;58032;49.820;6.274;2022-11-13T15:20:20;3.90;;;1.00;;
70505;SDS011;58032;49.820;6.274;2022-11-13T15:23:08;7.03;;;0.90;;
70505;SDS011;58032;49.820;6.274;2022-11-13T15:25:57;3.90;;;0.95;;
70505;SDS011;58032;49.820;6.274;2022-11-13T15:28:42;2.53;;;0.68;;
70505;SDS011;58032;49.820;6.274;2022-11-13T15:31:29;2.90;;;0.60;;
70505;SDS011;58032;49.820;6.274;2022-11-13T15:34:17;2.47;;;0.60;;
70505;SDS011;58032;49.820;6.274;2022-11-13T15:37:15;2.50;;;0.75;;
70505;SDS011;58032;49.820;6.274;2022-11-13T15:40:01;2.92;;;0.70;;
70505;SDS011;58032;49.820;6.274;2022-11-13T15:42:47;2.28;;;0.60;;
70505;SDS011;58032;49.820;6.274;2022-11-13T15:45:32;2.20;;;0.60;;
70505;SDS011;58032;49.820;6.274;2022-11-13T15:48:18;1.90;;;0.57;;
70505;SDS011;58032;49.820;6.274;2022-11-13T15:51:04;2.20;;;0.60;;
70505;SDS011;58032;49.820;6.274;2022-11-13T15:53:57;2.78;;;0.82;;
70505;SDS011;58032;49.820;6.274;2022-11-13T15:56:45;2.40;;;0.70;;
70505;SDS011;58032;49.820;6.274;2022-11-13T15:59:32;3.17;;;0.80;;
70505;SDS011;58032;49.820;6.274;2022-11-13T16:02:17;2.70;;;0.70;;
70505;SDS011;58032;49.820;6.274;2022-11-13T16:05:03;3.40;;;0.80;;
70505;SDS011;58032;49.820;6.274;2022-11-13T16:07:50;4.28;;;0.80;;
70505;SDS011;58032;49.820;6.274;2022-11-13T16:10:36;3.33;;;0.90;;
70505;SDS011;58032;49.820;6.274;2022-11-13T16:13:22;2.83;;;0.90;;
70505;SDS011;58032;49.820;6.274;2022-11-13T16:16:14;2.83;;;0.73;;
70505;SDS011;58032;49.820;6.274;2022-11-13T16:19:03;2.58;;;0.80;;
70505;SDS011;58032;49.820;6.274;2022-11-13T16:21:56;3.10;;;0.80;;
70505;SDS011;58032;49.820;6.274;2022-11-13T16:24:42;3.47;;;0.90;;
70505;SDS011;58032;49.820;6.274;2022-11-13T16:27:28;3.03;;;1.00;;
70505;SDS011;58032;49.820;6.274;2022-11-13T16:30:17;2.70;;;0.87;;
70505;SDS011;58032;49.820;6.274;2022-11-13T16:33:06;3.47;;;0.82;;
70505;SDS011;58032;49.820;6.274;2022-11-13T16:35:53;3.03;;;0.82;;
70505;SDS011;58032;49.820;6.274;2022-11-13T16:38:39;3.00;;;0.80;;
70505;SDS011;58032;49.820;6.274;2022-11-13T16:41:24;3.45;;;0.90;;
70505;SDS011;58032;49.820;6.274;2022-11-13T16:44:10;3.03;;;0.90;;
70505;SDS011;58032;49.820;6.274;2022-11-13T16:46:55;3.22;;;1.00;;
70505;SDS011;58032;49.820;6.274;2022-11-13T16:49:41;2.63;;;0.77;;
70505;SDS011;58032;49.820;6.274;2022-11-13T16:52:26;3.40;;;1.00;;
70505;SDS011;58032;49.820;6.274;2022-11-13T16:55:12;3.05;;;1.00;;
70505;SDS011;58032;49.820;6.274;2022-11-13T16:57:58;3.23;;;1.00;;
70505;SDS011;58032;49.820;6.274;2022-11-13T17:00:43;3.03;;;1.00;;
70505;SDS011;58032;49.820;6.274;2022-11-13T17:03:28;4.25;;;0.98;;
70505;SDS011;58032;49.820;6.274;2022-11-13T17:09:12;2.92;;;0.90;;
70505;SDS011;58032;49.820;6.274;2022-11-13T17:11:58;2.77;;;0.70;;
70505;SDS011;58032;49.820;6.274;2022-11-13T17:14:44;3.28;;;1.23;;
70505;SDS011;58032;49.820;6.274;2022-11-13T17:17:30;4.78;;;0.95;;
70505;SDS011;58032;49.820;6.274;2022-11-13T17:20:15;3.05;;;0.82;;
70505;SDS011;58032;49.820;6.274;2022-11-13T17:23:03;3.30;;;0.90;;
70505;SDS011;58032;49.820;6.274;2022-11-13T17:25:48;2.90;;;0.77;;
70505;SDS011;58032;49.820;6.274;2022-11-13T17:28:34;2.30;;;1.02;;
70505;SDS011;58032;49.820;6.274;2022-11-13T17:31:20;2.50;;;0.70;;
70505;SDS011;58032;49.820;6.274;2022-11-13T17:34:05;2.75;;;0.80;;
70505;SDS011;58032;49.820;6.274;2022-11-13T17:36:51;2.80;;;1.00;;
70505;SDS011;58032;49.820;6.274;2022-11-13T17:39:38;3.73;;;1.00;;
70505;SDS011;58032;49.820;6.274;2022-11-13T17:42:23;3.25;;;1.00;;
70505;SDS011;58032;49.820;6.274;2022-11-13T17:45:09;2.53;;;0.65;;
70505;SDS011;58032;49.820;6.274;2022-11-13T17:47:55;3.75;;;1.08;;
70505;SDS011;58032;49.820;6.274;2022-11-13T17:50:40;27.63;;;9.27;;
70505;SDS011;58032;49.820;6.274;2022-11-13T17:53:26;47.00;;;11.63;;
70505;SDS011;58032;49.820;6.274;2022-11-13T17:56:13;26.80;;;7.97;;
70505;SDS011;58032;49.820;6.274;2022-11-13T17:58:59;19.17;;;5.00;;
70505;SDS011;58032;49.820;6.274;2022-11-13T18:01:44;17.05;;;4.78;;
70505;SDS011;58032;49.820;6.274;2022-11-13T18:04:30;14.50;;;4.20;;
70505;SDS011;58032;49.820;6.274;2022-11-13T18:07:15;14.30;;;3.63;;
70505;SDS011;58032;49.820;6.274;2022-11-13T18:10:01;13.80;;;7.55;;
70505;SDS011;58032;49.820;6.274;2022-11-13T18:12:47;7.57;;;2.67;;
70505;SDS011;58032;49.820;6.274;2022-11-13T18:15:33;8.30;;;3.58;;
70505;SDS011;58032;49.820;6.274;2022-11-13T18:18:20;10.73;;;3.15;;
70505;SDS011;58032;49.820;6.274;2022-11-13T18:21:09;6.17;;;1.90;;
70505;SDS011;58032;49.820;6.274;2022-11-13T18:24:16;6.00;;;1.60;;
70505;SDS011;58032;49.820;6.274;2022-11-13T18:27:03;10.18;;;4.30;;